sensor_id;sensor_type;location;lat;lon;timestamp;pressure;altitude;pressure_sealevel;temperature;humidity
23170;BME280;11753;43.144;24.714;2023-03-14T00:00:57;99816.03;;;3.53;63.95
23170;BME280;11753;43.144;24.714;2023-03-14T00:01:58;99811.44;;;3.56;63.61
23170;BME280;11753;43.144;24.714;2023-03-14T00:02:58;99813.97;;;3.58;63.74
23170;BME280;11753;43.144;24.714;2023-03-14T00:03:59;99815.81;;;3.56;63.77
23170;BME280;11753;43.144;24.714;2023-03-14T00:05:00;99816.03;;;3.53;63.75
23170;BME280;11753;43.144;24.714;2023-03-14T00:06:04;99811.03;;;3.50;63.81
23170;BME280;11753;43.144;24.714;2023-03-14T00:07:05;99804.16;;;3.49;63.86
23170;BME280;11753;43.144;24.714;2023-03-14T00:08:06;99805.00;;;3.49;63.86
23170;BME280;11753;43.144;24.714;2023-03-14T00:09:07;99800.44;;;3.53;63.81
23170;BME280;11753;43.144;24.714;2023-03-14T00:10:11;99798.03;;;3.63;63.29
23170;BME280;11753;43.144;24.714;2023-03-14T00:11:18;99788.78;;;3.58;63.41
23170;BME280;11753;43.144;24.714;2023-03-14T00:12:19;99787.94;;;3.58;63.43
23170;BME280;11753;43.144;24.714;2023-03-14T00:13:20;99791.44;;;3.57;63.41
23170;BME280;11753;43.144;24.714;2023-03-14T00:14:21;99795.00;;;3.56;63.30
23170;BME280;11753;43.144;24.714;2023-03-14T00:15:22;99798.34;;;3.58;63.30
23170;BME280;11753;43.144;24.714;2023-03-14T00:16:24;99784.41;;;3.59;63.37
23170;BME280;11753;43.144;24.714;2023-03-14T00:17:27;99791.44;;;3.57;63.22
23170;BME280;11753;43.144;24.714;2023-03-14T00:18:29;99785.34;;;3.58;63.25
23170;BME280;11753;43.144;24.714;2023-03-14T00:19:30;99786.88;;;3.61;63.06
23170;BME280;11753;43.144;24.714;2023-03-14T00:20:31;99786.59;;;3.52;63.09
23170;BME280;11753;43.144;24.714;2023-03-14T00:21:31;99783.75;;;3.55;63.09
23170;BME280;11753;43.144;24.714;2023-03-14T00:22:32;99781.25;;;3.54;63.03
23170;BME280;11753;43.144;24.714;2023-03-14T00:23:34;99775.84;;;3.57;62.92
23170;BME280;11753;43.144;24.714;2023-03-14T00:24:36;99777.41;;;3.59;62.81
23170;BME280;11753;43.144;24.714;2023-03-14T00:25:37;99776.69;;;3.57;62.96
23170;BME280;11753;43.144;24.714;2023-03-14T00:26:38;99776.88;;;3.54;62.90
23170;BME280;11753;43.144;24.714;2023-03-14T00:27:39;99778.44;;;3.57;62.83
23170;BME280;11753;43.144;24.714;2023-03-14T00:28:41;99770.00;;;3.41;63.19
23170;BME280;11753;43.144;24.714;2023-03-14T00:29:42;99768.75;;;3.34;63.61
23170;BME280;11753;43.144;24.714;2023-03-14T00:30:47;99775.84;;;3.31;63.63
23170;BME280;11753;43.144;24.714;2023-03-14T00:31:48;99770.44;;;3.35;63.56
23170;BME280;11753;43.144;24.714;2023-03-14T00:32:49;99766.88;;;3.36;63.54
23170;BME280;11753;43.144;24.714;2023-03-14T00:33:52;99771.91;;;3.39;63.61
23170;BME280;11753;43.144;24.714;2023-03-14T00:34:53;99764.91;;;3.39;63.52
23170;BME280;11753;43.144;24.714;2023-03-14T00:35:59;99758.16;;;3.37;63.47
23170;BME280;11753;43.144;24.714;2023-03-14T00:37:01;99765.22;;;3.35;63.53
23170;BME280;11753;43.144;24.714;2023-03-14T00:38:02;99763.97;;;3.27;63.97
23170;BME280;11753;43.144;24.714;2023-03-14T00:39:03;99762.41;;;3.25;64.14
23170;BME280;11753;43.144;24.714;2023-03-14T00:40:05;99771.69;;;3.29;64.00
23170;BME280;11753;43.144;24.714;2023-03-14T00:41:13;99767.84;;;3.22;64.18
23170;BME280;11753;43.144;24.714;2023-03-14T00:42:15;99769.41;;;3.24;64.25
23170;BME280;11753;43.144;24.714;2023-03-14T00:43:15;99765.84;;;3.25;64.34
23170;BME280;11753;43.144;24.714;2023-03-14T00:44:16;99760.94;;;3.21;64.35
23170;BME280;11753;43.144;24.714;2023-03-14T00:45:17;99770.31;;;3.11;64.79
23170;BME280;11753;43.144;24.714;2023-03-14T00:46:18;99755.00;;;3.06;65.02
23170;BME280;11753;43.144;24.714;2023-03-14T00:47:19;99763.63;;;3.07;65.17
23170;BME280;11753;43.144;24.714;2023-03-14T00:48:20;99760.97;;;3.08;65.26
23170;BME280;11753;43.144;24.714;2023-03-14T00:49:21;99753.75;;;3.12;65.32
23170;BME280;11753;43.144;24.714;2023-03-14T00:50:22;99755.09;;;3.04;65.66
23170;BME280;11753;43.144;24.714;2023-03-14T00:51:23;99762.50;;;3.11;65.56
23170;BME280;11753;43.144;24.714;2023-03-14T00:52:24;99746.06;;;3.10;65.48
23170;BME280;11753;43.144;24.714;2023-03-14T00:53:25;99746.78;;;3.12;65.52
23170;BME280;11753;43.144;24.714;2023-03-14T00:54:26;99751.69;;;3.04;65.89
23170;BME280;11753;43.144;24.714;2023-03-14T00:55:27;99752.50;;;3.04;65.77
23170;BME280;11753;43.144;24.714;2023-03-14T00:56:28;99753.34;;;3.05;65.83
23170;BME280;11753;43.144;24.714;2023-03-14T00:57:29;99742.31;;;3.01;65.82
23170;BME280;11753;43.144;24.714;2023-03-14T00:58:29;99742.09;;;3.04;65.80
23170;BME280;11753;43.144;24.714;2023-03-14T00:59:30;99739.22;;;3.09;65.63
23170;BME280;11753;43.144;24.714;2023-03-14T01:00:32;99741.91;;;3.08;65.71
23170;BME280;11753;43.144;24.714;2023-03-14T01:01:33;99742.63;;;3.10;65.64
23170;BME280;11753;43.144;24.714;2023-03-14T01:02:34;99745.66;;;3.03;65.72
23170;BME280;11753;43.144;24.714;2023-03-14T01:03:35;99741.28;;;3.04;65.64
23170;BME280;11753;43.144;24.714;2023-03-14T01:04:36;99738.88;;;3.01;65.96
23170;BME280;11753;43.144;24.714;2023-03-14T01:05:38;99735.34;;;3.02;65.76
23170;BME280;11753;43.144;24.714;2023-03-14T01:06:40;99732.31;;;2.95;66.00
23170;BME280;11753;43.144;24.714;2023-03-14T01:07:41;99735.03;;;2.94;66.18
23170;BME280;11753;43.144;24.714;2023-03-14T01:08:42;99729.63;;;2.97;66.11
23170;BME280;11753;43.144;24.714;2023-03-14T01:09:43;99728.66;;;2.98;66.17
23170;BME280;11753;43.144;24.714;2023-03-14T01:10:44;99728.66;;;2.98;66.08
23170;BME280;11753;43.144;24.714;2023-03-14T01:11:44;99732.22;;;2.97;66.08
23170;BME280;11753;43.144;24.714;2023-03-14T01:12:47;99726.41;;;2.93;66.60
23170;BME280;11753;43.144;24.714;2023-03-14T01:13:48;99724.13;;;3.01;66.07
23170;BME280;11753;43.144;24.714;2023-03-14T01:14:49;99724.00;;;3.03;65.99
23170;BME280;11753;43.144;24.714;2023-03-14T01:15:50;99726.06;;;2.98;66.14
23170;BME280;11753;43.144;24.714;2023-03-14T01:16:51;99723.38;;;2.87;66.46
23170;BME280;11753;43.144;24.714;2023-03-14T01:17:52;99725.03;;;2.88;66.52
23170;BME280;11753;43.144;24.714;2023-03-14T01:18:53;99729.81;;;2.94;66.41
23170;BME280;11753;43.144;24.714;2023-03-14T01:19:54;99727.22;;;2.94;66.42
23170;BME280;11753;43.144;24.714;2023-03-14T01:20:55;99728.78;;;2.96;66.31
23170;BME280;11753;43.144;24.714;2023-03-14T01:21:56;99723.59;;;2.96;66.38
23170;BME280;11753;43.144;24.714;2023-03-14T01:22:56;99721.81;;;2.97;66.16
23170;BME280;11753;43.144;24.714;2023-03-14T01:23:59;99729.81;;;2.94;66.48
23170;BME280;11753;43.144;24.714;2023-03-14T01:25:00;99719.84;;;3.00;66.23
23170;BME280;11753;43.144;24.714;2023-03-14T01:26:01;99725.66;;;3.04;66.18
23170;BME280;11753;43.144;24.714;2023-03-14T01:27:02;99720.75;;;2.99;66.20
23170;BME280;11753;43.144;24.714;2023-03-14T01:28:23;99722.75;;;2.96;66.46
23170;BME280;11753;43.144;24.714;2023-03-14T01:29:25;99722.63;;;2.97;66.21
23170;BME280;11753;43.144;24.714;2023-03-14T01:30:26;99722.03;;;2.94;66.49
23170;BME280;11753;43.144;24.714;2023-03-14T01:31:27;99715.34;;;2.90;66.46
23170;BME280;11753;43.144;24.714;2023-03-14T01:32:28;99710.97;;;2.90;66.54
23170;BME280;11753;43.144;24.714;2023-03-14T01:33:29;99710.47;;;2.98;66.37
23170;BME280;11753;43.144;24.714;2023-03-14T01:34:30;99717.66;;;2.94;66.30
23170;BME280;11753;43.144;24.714;2023-03-14T01:35:31;99708.81;;;2.97;66.30
23170;BME280;11753;43.144;24.714;2023-03-14T01:36:32;99708.38;;;2.90;66.44
23170;BME280;11753;43.144;24.714;2023-03-14T01:37:33;99713.38;;;2.81;66.39
23170;BME280;11753;43.144;24.714;2023-03-14T01:38:35;99705.94;;;2.62;66.70
23170;BME280;11753;43.144;24.714;2023-03-14T01:39:36;99713.44;;;2.66;66.79
23170;BME280;11753;43.144;24.714;2023-03-14T01:40:44;99710.53;;;2.58;67.15
23170;BME280;11753;43.144;24.714;2023-03-14T01:41:47;99705.22;;;2.60;67.09
23170;BME280;11753;43.144;24.714;2023-03-14T01:42:58;99706.78;;;2.62;67.16
23170;BME280;11753;43.144;24.714;2023-03-14T01:44:09;99711.97;;;2.62;67.41
23170;BME280;11753;43.144;24.714;2023-03-14T01:46:48;99716.06;;;2.66;67.25
23170;BME280;11753;43.144;24.714;2023-03-14T01:47:49;99708.25;;;2.66;67.14
23170;BME280;11753;43.144;24.714;2023-03-14T01:49:00;99715.00;;;2.69;67.48
23170;BME280;11753;43.144;24.714;2023-03-14T01:50:08;99713.34;;;2.68;67.22
23170;BME280;11753;43.144;24.714;2023-03-14T01:52:53;99707.72;;;2.61;67.54
23170;BME280;11753;43.144;24.714;2023-03-14T01:54:00;99701.47;;;2.64;67.56
23170;BME280;11753;43.144;24.714;2023-03-14T01:55:09;99707.09;;;2.58;67.76
23170;BME280;11753;43.144;24.714;2023-03-14T01:56:14;99709.03;;;2.54;67.94
23170;BME280;11753;43.144;24.714;2023-03-14T01:58:29;99698.03;;;2.63;67.75
23170;BME280;11753;43.144;24.714;2023-03-14T01:59:32;99700.44;;;2.66;67.47
23170;BME280;11753;43.144;24.714;2023-03-14T02:00:34;99703.88;;;2.67;67.51
23170;BME280;11753;43.144;24.714;2023-03-14T02:01:36;99697.63;;;2.69;67.18
23170;BME280;11753;43.144;24.714;2023-03-14T02:02:58;99700.84;;;2.60;67.59
23170;BME280;11753;43.144;24.714;2023-03-14T02:04:01;99704.56;;;2.56;67.72
23170;BME280;11753;43.144;24.714;2023-03-14T02:05:04;99708.31;;;2.52;67.72
23170;BME280;11753;43.144;24.714;2023-03-14T02:06:07;99709.03;;;2.54;67.93
23170;BME280;11753;43.144;24.714;2023-03-14T02:07:22;99701.47;;;2.51;67.84
23170;BME280;11753;43.144;24.714;2023-03-14T02:08:27;99703.31;;;2.49;68.30
23170;BME280;11753;43.144;24.714;2023-03-14T02:09:28;99709.25;;;2.51;68.08
23170;BME280;11753;43.144;24.714;2023-03-14T02:10:34;99699.81;;;2.50;68.03
23170;BME280;11753;43.144;24.714;2023-03-14T02:11:36;99710.19;;;2.50;68.20
23170;BME280;11753;43.144;24.714;2023-03-14T02:12:38;99707.50;;;2.52;68.18
23170;BME280;11753;43.144;24.714;2023-03-14T02:13:39;99707.66;;;2.48;68.41
23170;BME280;11753;43.144;24.714;2023-03-14T02:14:40;99706.84;;;2.48;68.31
23170;BME280;11753;43.144;24.714;2023-03-14T02:15:47;99706.44;;;2.54;68.14
23170;BME280;11753;43.144;24.714;2023-03-14T02:16:49;99711.53;;;2.56;68.15
23170;BME280;11753;43.144;24.714;2023-03-14T02:17:50;99711.09;;;2.49;68.00
23170;BME280;11753;43.144;24.714;2023-03-14T02:18:52;99709.78;;;2.56;67.90
23170;BME280;11753;43.144;24.714;2023-03-14T02:21:31;99718.72;;;2.52;68.00
23170;BME280;11753;43.144;24.714;2023-03-14T02:22:37;99719.16;;;2.59;67.74
23170;BME280;11753;43.144;24.714;2023-03-14T02:24:20;99721.84;;;2.57;68.12
23170;BME280;11753;43.144;24.714;2023-03-14T02:27:06;99709.31;;;2.37;68.12
23170;BME280;11753;43.144;24.714;2023-03-14T02:28:07;99706.41;;;2.41;68.10
23170;BME280;11753;43.144;24.714;2023-03-14T02:29:08;99713.19;;;2.44;68.27
23170;BME280;11753;43.144;24.714;2023-03-14T02:30:15;99712.25;;;2.45;68.10
23170;BME280;11753;43.144;24.714;2023-03-14T02:31:16;99706.00;;;2.47;68.00
23170;BME280;11753;43.144;24.714;2023-03-14T02:32:19;99713.31;;;2.55;67.85
23170;BME280;11753;43.144;24.714;2023-03-14T02:33:22;99710.72;;;2.55;67.65
23170;BME280;11753;43.144;24.714;2023-03-14T02:34:24;99715.19;;;2.53;67.70
23170;BME280;11753;43.144;24.714;2023-03-14T02:35:37;99705.50;;;2.55;67.68
23170;BME280;11753;43.144;24.714;2023-03-14T02:36:40;99709.88;;;2.55;67.71
23170;BME280;11753;43.144;24.714;2023-03-14T02:37:50;99716.44;;;2.60;67.61
23170;BME280;11753;43.144;24.714;2023-03-14T02:39:15;99712.03;;;2.48;67.76
23170;BME280;11753;43.144;24.714;2023-03-14T02:40:21;99716.84;;;2.54;67.65
23170;BME280;11753;43.144;24.714;2023-03-14T02:41:22;99706.44;;;2.54;67.47
23170;BME280;11753;43.144;24.714;2023-03-14T02:42:23;99709.97;;;2.53;67.46
23170;BME280;11753;43.144;24.714;2023-03-14T02:43:24;99717.44;;;2.45;67.82
23170;BME280;11753;43.144;24.714;2023-03-14T02:44:25;99715.56;;;2.47;67.84
23170;BME280;11753;43.144;24.714;2023-03-14T02:46:36;99722.03;;;2.54;67.67
23170;BME280;11753;43.144;24.714;2023-03-14T02:47:40;99719.25;;;2.57;67.58
23170;BME280;11753;43.144;24.714;2023-03-14T02:48:56;99724.97;;;2.62;67.38
23170;BME280;11753;43.144;24.714;2023-03-14T02:50:02;99713.13;;;2.58;67.40
23170;BME280;11753;43.144;24.714;2023-03-14T02:51:04;99712.47;;;2.55;67.40
23170;BME280;11753;43.144;24.714;2023-03-14T02:52:05;99713.53;;;2.52;67.58
23170;BME280;11753;43.144;24.714;2023-03-14T02:53:06;99712.28;;;2.58;67.41
23170;BME280;11753;43.144;24.714;2023-03-14T02:54:07;99712.47;;;2.55;67.18
23170;BME280;11753;43.144;24.714;2023-03-14T02:55:09;99709.78;;;2.56;67.22
23170;BME280;11753;43.144;24.714;2023-03-14T02:56:11;99704.56;;;2.56;67.35
23170;BME280;11753;43.144;24.714;2023-03-14T02:57:12;99710.91;;;2.52;67.37
23170;BME280;11753;43.144;24.714;2023-03-14T02:58:13;99707.38;;;2.53;67.51
23170;BME280;11753;43.144;24.714;2023-03-14T02:59:14;99701.25;;;2.54;67.44
23170;BME280;11753;43.144;24.714;2023-03-14T03:00:16;99706.44;;;2.54;67.37
23170;BME280;11753;43.144;24.714;2023-03-14T03:01:17;99695.66;;;2.60;67.25
23170;BME280;11753;43.144;24.714;2023-03-14T03:02:18;99697.31;;;2.61;67.12
23170;BME280;11753;43.144;24.714;2023-03-14T03:03:19;99698.25;;;2.60;67.08
23170;BME280;11753;43.144;24.714;2023-03-14T03:04:19;99699.09;;;2.61;67.04
23170;BME280;11753;43.144;24.714;2023-03-14T03:05:20;99705.44;;;2.69;66.76
23170;BME280;11753;43.144;24.714;2023-03-14T03:06:21;99698.78;;;2.65;66.61
23170;BME280;11753;43.144;24.714;2023-03-14T03:07:23;99698.16;;;2.62;66.73
23170;BME280;11753;43.144;24.714;2023-03-14T03:08:25;99693.78;;;2.62;66.79
23170;BME280;11753;43.144;24.714;2023-03-14T03:09:27;99700.31;;;2.55;66.88
23170;BME280;11753;43.144;24.714;2023-03-14T03:10:28;99694.19;;;2.56;67.19
23170;BME280;11753;43.144;24.714;2023-03-14T03:11:30;99696.69;;;2.58;66.82
23170;BME280;11753;43.144;24.714;2023-03-14T03:12:32;99692.72;;;2.52;67.22
23170;BME280;11753;43.144;24.714;2023-03-14T03:13:33;99694.69;;;2.48;67.24
23170;BME280;11753;43.144;24.714;2023-03-14T03:14:35;99691.84;;;2.39;67.64
23170;BME280;11753;43.144;24.714;2023-03-14T03:15:35;99695.19;;;2.41;67.71
23170;BME280;11753;43.144;24.714;2023-03-14T03:16:36;99693.84;;;2.48;67.32
23170;BME280;11753;43.144;24.714;2023-03-14T03:17:37;99691.06;;;2.51;67.11
23170;BME280;11753;43.144;24.714;2023-03-14T03:18:38;99677.94;;;2.40;67.45
23170;BME280;11753;43.144;24.714;2023-03-14T03:19:39;99686.44;;;2.42;67.70
23170;BME280;11753;43.144;24.714;2023-03-14T03:20:40;99683.84;;;2.42;67.40
23170;BME280;11753;43.144;24.714;2023-03-14T03:21:41;99673.22;;;2.32;67.87
23170;BME280;11753;43.144;24.714;2023-03-14T03:22:42;99673.88;;;2.36;67.92
23170;BME280;11753;43.144;24.714;2023-03-14T03:23:43;99676.75;;;2.31;67.93
23170;BME280;11753;43.144;24.714;2023-03-14T03:24:44;99671.47;;;2.33;67.86
23170;BME280;11753;43.144;24.714;2023-03-14T03:25:51;99673.03;;;2.35;67.65
23170;BME280;11753;43.144;24.714;2023-03-14T03:26:52;99668.31;;;2.28;67.83
23170;BME280;11753;43.144;24.714;2023-03-14T03:27:54;99673.44;;;2.29;68.05
23170;BME280;11753;43.144;24.714;2023-03-14T03:28:56;99676.88;;;2.30;68.14
23170;BME280;11753;43.144;24.714;2023-03-14T03:29:56;99677.69;;;2.30;68.21
23170;BME280;11753;43.144;24.714;2023-03-14T03:30:57;99674.28;;;2.30;68.29
23170;BME280;11753;43.144;24.714;2023-03-14T03:31:57;99675.94;;;2.31;68.18
23170;BME280;11753;43.144;24.714;2023-03-14T03:32:58;99678.13;;;2.37;68.16
23170;BME280;11753;43.144;24.714;2023-03-14T03:33:59;99667.69;;;2.24;68.21
23170;BME280;11753;43.144;24.714;2023-03-14T03:35:02;99668.94;;;2.18;68.45
23170;BME280;11753;43.144;24.714;2023-03-14T03:36:03;99667.47;;;2.14;68.55
23170;BME280;11753;43.144;24.714;2023-03-14T03:37:05;99661.34;;;2.15;68.62
23170;BME280;11753;43.144;24.714;2023-03-14T03:38:05;99662.66;;;2.08;68.76
23170;BME280;11753;43.144;24.714;2023-03-14T03:39:09;99665.34;;;2.07;68.81
23170;BME280;11753;43.144;24.714;2023-03-14T03:40:10;99660.81;;;2.10;68.79
23170;BME280;11753;43.144;24.714;2023-03-14T03:41:11;99658.19;;;2.10;68.85
23170;BME280;11753;43.144;24.714;2023-03-14T03:42:12;99664.22;;;2.11;68.80
23170;BME280;11753;43.144;24.714;2023-03-14T03:43:13;99664.56;;;2.19;68.64
23170;BME280;11753;43.144;24.714;2023-03-14T03:44:14;99665.41;;;2.19;68.28
23170;BME280;11753;43.144;24.714;2023-03-14T03:45:15;99667.66;;;2.11;68.84
23170;BME280;11753;43.144;24.714;2023-03-14T03:46:16;99673.06;;;2.08;69.01
23170;BME280;11753;43.144;24.714;2023-03-14T03:47:17;99666.19;;;2.07;69.16
23170;BME280;11753;43.144;24.714;2023-03-14T03:48:17;99666.19;;;2.07;69.24
23170;BME280;11753;43.144;24.714;2023-03-14T03:49:18;99666.50;;;2.03;69.08
23170;BME280;11753;43.144;24.714;2023-03-14T03:50:19;99668.81;;;2.07;69.13
23170;BME280;11753;43.144;24.714;2023-03-14T03:51:20;99666.94;;;2.09;69.13
23170;BME280;11753;43.144;24.714;2023-03-14T03:52:21;99666.19;;;2.07;69.29
23170;BME280;11753;43.144;24.714;2023-03-14T03:53:22;99665.78;;;2.13;68.96
23170;BME280;11753;43.144;24.714;2023-03-14T03:54:23;99663.94;;;2.15;68.91
23170;BME280;11753;43.144;24.714;2023-03-14T03:55:24;99670.19;;;2.26;68.56
23170;BME280;11753;43.144;24.714;2023-03-14T03:56:26;99662.78;;;2.19;68.45
23170;BME280;11753;43.144;24.714;2023-03-14T03:57:27;99651.28;;;2.24;68.29
23170;BME280;11753;43.144;24.714;2023-03-14T03:58:28;99656.47;;;2.24;68.15
23170;BME280;11753;43.144;24.714;2023-03-14T03:59:29;99671.03;;;2.26;67.91
23170;BME280;11753;43.144;24.714;2023-03-14T04:00:30;99668.31;;;2.28;68.03
23170;BME280;11753;43.144;24.714;2023-03-14T04:01:32;99665.84;;;2.26;67.82
23170;BME280;11753;43.144;24.714;2023-03-14T04:02:33;99667.94;;;2.34;67.45
23170;BME280;11753;43.144;24.714;2023-03-14T04:03:34;99664.66;;;2.17;67.71
23170;BME280;11753;43.144;24.714;2023-03-14T04:04:36;99668.31;;;2.28;67.26
23170;BME280;11753;43.144;24.714;2023-03-14T04:05:37;99658.34;;;1.95;68.05
23170;BME280;11753;43.144;24.714;2023-03-14T04:06:38;99661.13;;;1.91;68.38
23170;BME280;11753;43.144;24.714;2023-03-14T04:07:42;99653.16;;;1.95;68.80
23170;BME280;11753;43.144;24.714;2023-03-14T04:08:43;99663.88;;;2.03;68.60
23170;BME280;11753;43.144;24.714;2023-03-14T04:09:44;99659.75;;;2.00;68.58
23170;BME280;11753;43.144;24.714;2023-03-14T04:10:45;99661.09;;;2.06;68.72
23170;BME280;11753;43.144;24.714;2023-03-14T04:11:47;99663.25;;;1.99;68.73
23170;BME280;11753;43.144;24.714;2023-03-14T04:12:48;99660.63;;;1.99;68.92
23170;BME280;11753;43.144;24.714;2023-03-14T04:13:49;99658.03;;;1.99;68.88
23170;BME280;11753;43.144;24.714;2023-03-14T04:14:50;99659.53;;;2.03;68.76
23170;BME280;11753;43.144;24.714;2023-03-14T04:15:51;99651.94;;;2.00;68.82
23170;BME280;11753;43.144;24.714;2023-03-14T04:16:51;99657.88;;;2.02;68.88
23170;BME280;11753;43.144;24.714;2023-03-14T04:17:57;99661.56;;;1.98;68.70
23170;BME280;11753;43.144;24.714;2023-03-14T04:18:58;99653.06;;;1.96;68.98
23170;BME280;11753;43.144;24.714;2023-03-14T04:19:59;99659.09;;;1.97;68.96
23170;BME280;11753;43.144;24.714;2023-03-14T04:21:00;99661.41;;;2.01;68.91
23170;BME280;11753;43.144;24.714;2023-03-14T04:22:01;99659.53;;;2.03;68.93
23170;BME280;11753;43.144;24.714;2023-03-14T04:23:02;99657.66;;;2.05;68.63
23170;BME280;11753;43.144;24.714;2023-03-14T04:24:03;99648.94;;;2.06;68.59
23170;BME280;11753;43.144;24.714;2023-03-14T04:25:05;99636.50;;;2.11;68.25
23170;BME280;11753;43.144;24.714;2023-03-14T04:26:07;99639.09;;;2.11;68.29
23170;BME280;11753;43.144;24.714;2023-03-14T04:27:07;99645.94;;;2.12;68.06
23170;BME280;11753;43.144;24.714;2023-03-14T04:28:08;99635.94;;;2.06;68.20
23170;BME280;11753;43.144;24.714;2023-03-14T04:29:09;99634.81;;;2.10;68.07
23170;BME280;11753;43.144;24.714;2023-03-14T04:30:10;99635.03;;;2.07;68.12
23170;BME280;11753;43.144;24.714;2023-03-14T04:31:14;99635.03;;;2.07;68.16
23170;BME280;11753;43.144;24.714;2023-03-14T04:32:15;99628.69;;;2.11;68.03
23170;BME280;11753;43.144;24.714;2023-03-14T04:33:16;99635.56;;;2.12;67.97
23170;BME280;11753;43.144;24.714;2023-03-14T04:34:17;99631.84;;;2.16;67.65
23170;BME280;11753;43.144;24.714;2023-03-14T04:35:18;99628.31;;;2.17;67.54
23170;BME280;11753;43.144;24.714;2023-03-14T04:36:19;99632.16;;;2.25;67.11
23170;BME280;11753;43.144;24.714;2023-03-14T04:37:20;99629.78;;;2.22;67.24
23170;BME280;11753;43.144;24.714;2023-03-14T04:38:21;99629.34;;;2.15;67.38
23170;BME280;11753;43.144;24.714;2023-03-14T04:39:22;99620.06;;;2.11;67.68
23170;BME280;11753;43.144;24.714;2023-03-14T04:40:23;99620.72;;;2.14;67.46
23170;BME280;11753;43.144;24.714;2023-03-14T04:41:24;99624.22;;;2.13;67.70
23170;BME280;11753;43.144;24.714;2023-03-14T04:42:25;99624.34;;;2.12;67.97
23170;BME280;11753;43.144;24.714;2023-03-14T04:43:26;99614.28;;;2.07;68.01
23170;BME280;11753;43.144;24.714;2023-03-14T04:44:27;99620.91;;;2.11;67.75
23170;BME280;11753;43.144;24.714;2023-03-14T04:45:28;99621.56;;;2.15;67.44
23170;BME280;11753;43.144;24.714;2023-03-14T04:46:28;99624.22;;;2.13;67.57
23170;BME280;11753;43.144;24.714;2023-03-14T04:47:29;99624.97;;;2.15;67.35
23170;BME280;11753;43.144;24.714;2023-03-14T04:48:30;99630.91;;;2.17;67.42
23170;BME280;11753;43.144;24.714;2023-03-14T04:49:31;99627.19;;;2.22;67.48
23170;BME280;11753;43.144;24.714;2023-03-14T04:50:33;99634.03;;;2.23;66.88
23170;BME280;11753;43.144;24.714;2023-03-14T04:51:34;99636.69;;;2.08;67.53
23170;BME280;11753;43.144;24.714;2023-03-14T04:52:35;99627.31;;;2.06;67.91
23170;BME280;11753;43.144;24.714;2023-03-14T04:53:36;99635.22;;;2.04;67.83
23170;BME280;11753;43.144;24.714;2023-03-14T04:54:37;99640.81;;;1.98;68.12
23170;BME280;11753;43.144;24.714;2023-03-14T04:55:38;99633.78;;;2.00;68.14
23170;BME280;11753;43.144;24.714;2023-03-14T04:56:39;99631.41;;;2.10;67.99
23170;BME280;11753;43.144;24.714;2023-03-14T04:57:39;99631.13;;;2.14;67.96
23170;BME280;11753;43.144;24.714;2023-03-14T04:58:40;99632.03;;;2.13;67.91
23170;BME280;11753;43.144;24.714;2023-03-14T04:59:41;99634.44;;;2.16;67.92
23170;BME280;11753;43.144;24.714;2023-03-14T05:00:42;99636.09;;;2.17;67.84
23170;BME280;11753;43.144;24.714;2023-03-14T05:01:43;99635.69;;;2.24;67.67
23170;BME280;11753;43.144;24.714;2023-03-14T05:02:44;99628.84;;;2.23;67.69
23170;BME280;11753;43.144;24.714;2023-03-14T05:03:45;99631.63;;;2.19;67.54
23170;BME280;11753;43.144;24.714;2023-03-14T05:04:46;99641.50;;;2.14;67.45
23170;BME280;11753;43.144;24.714;2023-03-14T05:05:47;99637.75;;;2.18;67.52
23170;BME280;11753;43.144;24.714;2023-03-14T05:06:48;99645.78;;;2.28;67.40
23170;BME280;11753;43.144;24.714;2023-03-14T05:07:49;99643.38;;;2.25;66.98
23170;BME280;11753;43.144;24.714;2023-03-14T05:08:50;99645.50;;;2.33;66.84
23170;BME280;11753;43.144;24.714;2023-03-14T05:09:51;99641.22;;;2.32;66.90
23170;BME280;11753;43.144;24.714;2023-03-14T05:10:54;99640.50;;;2.30;67.09
23170;BME280;11753;43.144;24.714;2023-03-14T05:11:55;99630.84;;;2.32;67.09
23170;BME280;11753;43.144;24.714;2023-03-14T05:12:56;99635.31;;;2.30;67.09
23170;BME280;11753;43.144;24.714;2023-03-14T05:13:57;99640.72;;;2.39;66.89
23170;BME280;11753;43.144;24.714;2023-03-14T05:14:58;99632.00;;;2.40;66.70
23170;BME280;11753;43.144;24.714;2023-03-14T05:16:07;99628.78;;;2.37;66.85
23170;BME280;11753;43.144;24.714;2023-03-14T05:17:09;99624.31;;;2.39;66.81
23170;BME280;11753;43.144;24.714;2023-03-14T05:18:10;99627.22;;;2.47;66.69
23170;BME280;11753;43.144;24.714;2023-03-14T05:19:11;99618.50;;;2.48;66.59
23170;BME280;11753;43.144;24.714;2023-03-14T05:20:12;99623.28;;;2.54;66.22
23170;BME280;11753;43.144;24.714;2023-03-14T05:21:15;99617.47;;;2.63;66.00
23170;BME280;11753;43.144;24.714;2023-03-14T05:22:17;99615.19;;;2.71;65.65
23170;BME280;11753;43.144;24.714;2023-03-14T05:23:18;99607.91;;;2.76;65.47
23170;BME280;11753;43.144;24.714;2023-03-14T05:24:19;99617.88;;;2.83;65.17
23170;BME280;11753;43.144;24.714;2023-03-14T05:25:20;99606.25;;;2.88;65.21
23170;BME280;11753;43.144;24.714;2023-03-14T05:26:21;99617.25;;;2.92;64.93
23170;BME280;11753;43.144;24.714;2023-03-14T05:27:22;99607.16;;;3.00;64.33
23170;BME280;11753;43.144;24.714;2023-03-14T05:28:23;99624.47;;;3.01;64.32
23170;BME280;11753;43.144;24.714;2023-03-14T05:29:24;99624.13;;;3.06;64.08
23170;BME280;11753;43.144;24.714;2023-03-14T05:30:25;99620.50;;;3.08;64.08
23170;BME280;11753;43.144;24.714;2023-03-14T05:31:28;99629.97;;;3.09;63.79
23170;BME280;11753;43.144;24.714;2023-03-14T05:32:28;99617.78;;;3.10;63.89
23170;BME280;11753;43.144;24.714;2023-03-14T05:33:29;99621.00;;;3.13;63.82
23170;BME280;11753;43.144;24.714;2023-03-14T05:34:30;99616.53;;;3.15;63.77
23170;BME280;11753;43.144;24.714;2023-03-14T05:35:31;99618.19;;;3.16;63.41
23170;BME280;11753;43.144;24.714;2023-03-14T05:36:32;99630.25;;;3.17;63.20
23170;BME280;11753;43.144;24.714;2023-03-14T05:37:33;99616.19;;;3.20;63.11
23170;BME280;11753;43.144;24.714;2023-03-14T05:38:35;99616.72;;;3.12;63.34